createdAt,value
2023-04-20T00:00:11.378Z,997.35
2023-04-20T00:01:07.875Z,997.23
2023-04-20T00:02:06.611Z,997.35
2023-04-20T00:03:06.792Z,997.34
2023-04-20T00:04:06.714Z,997.35
2023-04-20T00:05:07.274Z,997.29
2023-04-20T00:06:06.759Z,997.34
2023-04-20T00:07:07.785Z,997.23
2023-04-20T00:08:06.365Z,997.25
2023-04-20T00:10:30.216Z,997.16
2023-04-20T00:10:33.244Z,997.19
2023-04-20T00:11:31.899Z,997.18
2023-04-20T00:12:31.940Z,997.14
2023-04-20T00:13:32.782Z,997.15
2023-04-20T00:14:31.840Z,997.11
2023-04-20T00:15:32.503Z,997.07
2023-04-20T00:17:51.958Z,997.13
2023-04-20T00:18:06.051Z,997.13
2023-04-20T00:18:57.227Z,997.04
2023-04-20T00:19:54.465Z,997.06
2023-04-20T00:20:53.725Z,997.04
2023-04-20T00:21:53.746Z,997.05
2023-04-20T00:22:53.609Z,997.01
2023-04-20T00:23:53.919Z,996.94
2023-04-20T00:24:53.603Z,996.97
2023-04-20T00:25:53.553Z,996.97
2023-04-20T00:26:53.595Z,996.95
2023-04-20T00:27:53.558Z,996.92
2023-04-20T00:28:53.966Z,996.90
2023-04-20T00:29:53.457Z,996.89
2023-04-20T00:30:54.149Z,996.83
2023-04-20T00:31:53.552Z,996.88
2023-04-20T00:32:53.513Z,996.79
2023-04-20T00:33:54.170Z,996.81
2023-04-20T00:34:53.413Z,996.80
2023-04-20T00:35:53.490Z,996.80
2023-04-20T00:36:53.698Z,996.82
2023-04-20T00:37:53.600Z,996.81
2023-04-20T00:38:57.144Z,996.78
2023-04-20T00:39:53.359Z,996.78
2023-04-20T00:40:53.432Z,996.71
2023-04-20T00:41:56.420Z,996.76
2023-04-20T00:42:55.278Z,996.71
2023-04-20T00:43:53.359Z,996.69
2023-04-20T00:44:53.420Z,996.73
2023-04-20T00:45:53.431Z,996.68
2023-04-20T00:46:53.549Z,996.63
2023-04-20T00:47:53.411Z,996.65
2023-04-20T00:48:53.287Z,996.63
2023-04-20T00:49:53.377Z,996.65
2023-04-20T00:50:53.476Z,996.64
2023-04-20T00:51:53.338Z,996.58
2023-04-20T00:52:53.219Z,996.63
2023-04-20T00:53:56.289Z,996.62
2023-04-20T00:54:53.280Z,996.61
2023-04-20T00:55:58.915Z,996.56
2023-04-20T00:56:54.109Z,996.59
2023-04-20T00:57:53.381Z,996.58
2023-04-20T00:58:53.174Z,996.56
2023-04-20T00:59:55.929Z,996.56
2023-04-20T01:00:54.202Z,996.53
2023-04-20T01:01:54.370Z,996.51
2023-04-20T01:02:53.352Z,996.50
2023-04-20T01:03:55.207Z,996.48
2023-04-20T01:04:53.179Z,996.45
2023-04-20T01:05:53.233Z,996.47
2023-04-20T01:06:53.191Z,996.49
2023-04-20T01:07:53.170Z,996.49
2023-04-20T01:08:53.313Z,996.45
2023-04-20T01:09:53.184Z,996.41
2023-04-20T01:10:53.932Z,996.39
2023-04-20T01:11:53.155Z,996.41
2023-04-20T01:12:53.139Z,996.38
2023-04-20T01:13:52.971Z,996.38
2023-04-20T01:14:53.307Z,996.35
2023-04-20T01:15:53.181Z,996.31
2023-04-20T01:16:53.017Z,996.29
2023-04-20T01:17:53.526Z,996.29
2023-04-20T01:18:53.054Z,996.26
2023-04-20T01:19:53.079Z,996.29
2023-04-20T01:20:53.998Z,996.31
2023-04-20T01:21:53.070Z,996.25
2023-04-20T01:22:52.954Z,996.25
2023-04-20T01:23:53.125Z,996.23
2023-04-20T01:24:52.953Z,996.21
2023-04-20T01:25:52.882Z,996.17
2023-04-20T01:26:52.911Z,996.24
2023-04-20T01:27:53.213Z,996.24
2023-04-20T01:28:53.025Z,996.14
2023-04-20T01:29:52.907Z,996.18
2023-04-20T01:30:52.924Z,996.13
2023-04-20T01:31:52.861Z,996.10
2023-04-20T01:32:53.007Z,996.08
2023-04-20T01:33:52.897Z,996.10
2023-04-20T01:34:52.869Z,996.05
2023-04-20T01:35:54.866Z,996.03
2023-04-20T01:36:54.188Z,996.01
2023-04-20T01:37:52.805Z,996.00
2023-04-20T01:38:52.735Z,995.92
2023-04-20T01:39:52.770Z,996.00
2023-04-20T01:40:52.892Z,995.90
2023-04-20T01:41:52.789Z,995.91
2023-04-20T01:42:52.869Z,995.90
2023-04-20T01:43:52.726Z,995.86
2023-04-20T01:44:52.828Z,995.86
2023-04-20T01:45:52.684Z,995.86
2023-04-20T01:46:52.776Z,995.87
2023-04-20T01:47:52.935Z,995.86
2023-04-20T01:48:52.677Z,995.86
2023-04-20T01:49:52.729Z,995.81
2023-04-20T01:50:53.672Z,995.78
2023-04-20T01:51:52.702Z,995.78
2023-04-20T01:52:52.765Z,995.76
2023-04-20T01:53:52.627Z,995.78
2023-04-20T01:54:52.625Z,995.71
2023-04-20T01:55:52.632Z,995.77
2023-04-20T01:56:52.630Z,995.67
2023-04-20T01:57:52.613Z,995.65
2023-04-20T01:58:53.228Z,995.73
2023-04-20T01:59:52.579Z,995.69
2023-04-20T02:00:52.819Z,995.69
2023-04-20T02:02:00.306Z,995.69
2023-04-20T02:02:53.742Z,995.69
2023-04-20T02:03:53.596Z,995.66
2023-04-20T02:04:52.589Z,995.64
2023-04-20T02:05:52.551Z,995.58
2023-04-20T02:06:52.490Z,995.62
2023-04-20T02:07:52.593Z,995.62
2023-04-20T02:08:52.564Z,995.64
2023-04-20T02:09:52.801Z,995.62
2023-04-20T02:10:53.381Z,995.68
2023-04-20T02:11:53.260Z,995.64
2023-04-20T02:12:52.774Z,995.67
2023-04-20T02:13:54.990Z,995.63
2023-04-20T02:15:06.451Z,995.69
2023-04-20T02:15:55.101Z,995.64
2023-04-20T02:16:54.478Z,995.65
2023-04-20T02:17:53.419Z,995.61
2023-04-20T02:18:52.338Z,995.65
2023-04-20T02:19:53.108Z,995.61
2023-04-20T02:20:52.461Z,995.63
2023-04-20T02:21:52.405Z,995.58
2023-04-20T02:22:52.418Z,995.63
2023-04-20T02:23:52.373Z,995.57
2023-04-20T02:24:52.465Z,995.64
2023-04-20T02:25:52.821Z,995.58
2023-04-20T02:26:52.464Z,995.60
2023-04-20T02:27:52.564Z,995.54
2023-04-20T02:28:52.362Z,995.55
2023-04-20T02:29:52.224Z,995.51
2023-04-20T02:30:52.496Z,995.54
2023-04-20T02:31:53.285Z,995.54
2023-04-20T02:32:52.274Z,995.50
2023-04-20T02:33:52.554Z,995.56
2023-04-20T02:34:52.219Z,995.54
2023-04-20T02:35:52.336Z,995.50
2023-04-20T02:36:53.123Z,995.50
2023-04-20T02:38:18.290Z,995.49
2023-04-20T02:38:54.584Z,995.46
2023-04-20T02:39:52.153Z,995.45
2023-04-20T02:40:53.230Z,995.44
2023-04-20T02:41:52.198Z,995.44
2023-04-20T02:42:53.706Z,995.44
2023-04-20T02:43:52.176Z,995.43
2023-04-20T02:44:52.209Z,995.50
2023-04-20T02:45:52.218Z,995.45
2023-04-20T02:46:52.241Z,995.46
2023-04-20T02:47:52.277Z,995.42
2023-04-20T02:48:52.116Z,995.37
2023-04-20T02:49:52.158Z,995.45
2023-04-20T02:50:52.013Z,995.44
2023-04-20T02:51:52.430Z,995.32
2023-04-20T02:52:52.041Z,995.34
2023-04-20T02:53:52.119Z,995.33
2023-04-20T02:54:52.791Z,995.29
2023-04-20T02:55:52.070Z,995.35
2023-04-20T02:56:52.039Z,995.35
2023-04-20T02:57:52.020Z,995.30
2023-04-20T02:58:52.024Z,995.37
2023-04-20T02:59:51.988Z,995.28
2023-04-20T03:00:52.023Z,995.35
2023-04-20T03:01:52.331Z,995.21
2023-04-20T03:02:52.131Z,995.23
2023-04-20T03:03:52.235Z,995.28
2023-04-20T03:04:52.137Z,995.23
2023-04-20T03:05:51.924Z,995.22
2023-04-20T03:06:52.007Z,995.22
2023-04-20T03:07:51.896Z,995.15
2023-04-20T03:08:53.335Z,995.22
2023-04-20T03:09:51.862Z,995.20
2023-04-20T03:10:51.960Z,995.17
2023-04-20T03:11:51.823Z,995.17
2023-04-20T03:12:52.713Z,995.15
2023-04-20T03:13:51.831Z,995.16
2023-04-20T03:14:55.128Z,995.22
2023-04-20T03:15:51.966Z,995.14
2023-04-20T03:16:52.426Z,995.10
2023-04-20T03:17:51.827Z,995.09
2023-04-20T03:18:51.776Z,995.15
2023-04-20T03:19:51.968Z,995.16
2023-04-20T03:20:51.753Z,995.12
2023-04-20T03:21:51.747Z,995.21
2023-04-20T03:22:51.749Z,995.14
2023-04-20T03:23:52.208Z,995.18
2023-04-20T03:24:53.487Z,995.15
2023-04-20T03:25:52.678Z,995.19
2023-04-20T03:26:51.635Z,995.20
2023-04-20T03:27:52.328Z,995.16
2023-04-20T03:28:51.749Z,995.15
2023-04-20T03:29:51.664Z,995.18
2023-04-20T03:30:51.644Z,995.13
2023-04-20T03:31:54.923Z,995.23
2023-04-20T03:32:51.964Z,995.16
2023-04-20T03:33:51.714Z,995.15
2023-04-20T03:34:56.223Z,995.24
2023-04-20T03:35:51.608Z,995.17
2023-04-20T03:36:53.934Z,995.17
2023-04-20T03:37:51.605Z,995.14
2023-04-20T03:38:51.721Z,995.23
2023-04-20T03:39:51.557Z,995.18
2023-04-20T03:40:51.505Z,995.17
2023-04-20T03:41:51.633Z,995.20
2023-04-20T03:42:51.518Z,995.19
2023-04-20T03:43:51.593Z,995.19
2023-04-20T03:44:51.469Z,995.13
2023-04-20T03:45:51.596Z,995.15
2023-04-20T03:46:58.491Z,995.18
2023-04-20T03:47:51.479Z,995.15
2023-04-20T03:48:51.588Z,995.15
2023-04-20T03:49:51.572Z,995.16
2023-04-20T03:50:51.560Z,995.15
2023-04-20T03:51:51.814Z,995.19
2023-04-20T03:52:51.458Z,995.17
2023-04-20T03:53:51.396Z,995.12
2023-04-20T03:54:51.512Z,995.09
2023-04-20T03:55:51.494Z,995.07
2023-04-20T03:56:58.640Z,995.14
2023-04-20T03:57:52.419Z,995.06
2023-04-20T03:58:51.483Z,995.18
2023-04-20T03:59:57.207Z,995.07
2023-04-20T04:00:52.460Z,995.20
2023-04-20T04:01:51.553Z,995.09
2023-04-20T04:02:51.431Z,995.09
2023-04-20T04:03:51.748Z,995.04
2023-04-20T04:04:51.484Z,995.05
2023-04-20T04:05:51.297Z,995.09
2023-04-20T04:06:55.053Z,995.09
2023-04-20T04:07:51.240Z,995.01
2023-04-20T04:08:51.578Z,995.05
2023-04-20T04:09:51.285Z,995.04
2023-04-20T04:10:51.338Z,995.08
2023-04-20T04:11:51.569Z,995.17
2023-04-20T04:12:51.262Z,995.16
2023-04-20T04:13:52.218Z,995.11
2023-04-20T04:14:59.386Z,995.16
2023-04-20T04:15:51.260Z,995.21
2023-04-20T04:16:51.344Z,995.17
2023-04-20T04:17:53.982Z,995.11
2023-04-20T04:18:51.223Z,995.11
2023-04-20T04:19:51.179Z,995.18
2023-04-20T04:20:53.171Z,995.10
2023-04-20T04:21:51.170Z,995.05
2023-04-20T04:22:51.130Z,995.16
2023-04-20T04:23:51.194Z,995.15
2023-04-20T04:24:51.506Z,995.15
2023-04-20T04:25:51.102Z,995.15
2023-04-20T04:26:51.272Z,995.14
2023-04-20T04:27:51.207Z,995.14
2023-04-20T04:28:51.639Z,995.16
2023-04-20T04:29:51.117Z,995.17
2023-04-20T04:30:51.013Z,995.21
2023-04-20T04:31:52.379Z,995.13
2023-04-20T04:32:51.104Z,995.16
2023-04-20T04:33:51.026Z,995.16
2023-04-20T04:34:51.068Z,995.17
2023-04-20T04:35:51.110Z,995.14
2023-04-20T04:36:51.263Z,995.17
2023-04-20T04:37:51.007Z,995.16
2023-04-20T04:38:51.665Z,995.23
2023-04-20T04:39:51.115Z,995.22
2023-04-20T04:40:51.261Z,995.14
2023-04-20T04:41:50.991Z,995.17
2023-04-20T04:42:52.153Z,995.20
2023-04-20T04:43:50.994Z,995.21
2023-04-20T04:44:50.906Z,995.20
2023-04-20T04:45:50.903Z,995.21
2023-04-20T04:46:50.897Z,995.18
2023-04-20T04:47:50.916Z,995.24
2023-04-20T04:48:51.065Z,995.20
2023-04-20T04:49:50.849Z,995.19
2023-04-20T04:50:51.690Z,995.20
2023-04-20T04:51:50.823Z,995.23
2023-04-20T04:52:50.861Z,995.18
2023-04-20T04:53:51.023Z,995.14
2023-04-20T04:54:50.839Z,995.18
2023-04-20T04:55:51.815Z,995.21
2023-04-20T04:58:26.901Z,995.21
2023-04-20T04:59:29.988Z,995.23
2023-04-20T05:00:26.549Z,995.22
2023-04-20T05:01:26.855Z,995.18
2023-04-20T05:02:26.932Z,995.20
2023-04-20T05:03:26.868Z,995.18
2023-04-20T05:04:32.106Z,995.21
2023-04-20T05:08:16.725Z,995.30
2023-04-20T05:10:04.582Z,995.19
2023-04-20T05:10:26.187Z,995.31
2023-04-20T05:11:18.036Z,995.24
2023-04-20T05:12:16.645Z,995.28
2023-04-20T05:17:29.911Z,995.35
2023-04-20T05:21:17.208Z,995.34
2023-04-20T05:22:50.626Z,995.42
2023-04-20T05:23:18.894Z,995.42
2023-04-20T05:24:18.218Z,995.43
2023-04-20T05:25:18.558Z,995.43
2023-04-20T05:26:18.013Z,995.47
2023-04-20T05:27:18.213Z,995.51
2023-04-20T05:28:17.999Z,995.51
2023-04-20T05:29:18.269Z,995.52
2023-04-20T05:30:21.214Z,995.51
2023-04-20T05:31:19.270Z,995.57
2023-04-20T05:32:18.142Z,995.52
2023-04-20T05:33:17.932Z,995.52
2023-04-20T05:34:17.949Z,995.50
2023-04-20T05:35:18.039Z,995.52
2023-04-20T05:36:20.945Z,995.46
2023-04-20T05:37:33.914Z,995.54
2023-04-20T05:38:20.962Z,995.53
2023-04-20T05:39:19.467Z,995.59
2023-04-20T05:40:47.898Z,995.54
2023-04-20T05:41:31.070Z,995.59
2023-04-20T05:42:21.424Z,995.53
2023-04-20T05:43:18.707Z,995.57
2023-04-20T05:44:26.999Z,995.53
2023-04-20T05:45:30.124Z,995.61
2023-04-20T05:46:18.948Z,995.60
2023-04-20T05:47:21.612Z,995.58
2023-04-20T05:48:22.910Z,995.60
2023-04-20T05:49:21.839Z,995.63
2023-04-20T05:50:23.863Z,995.62
2023-04-20T05:51:26.902Z,995.59
2023-04-20T05:52:30.191Z,995.65
2023-04-20T05:53:19.277Z,995.71
2023-04-20T05:54:19.364Z,995.68
2023-04-20T05:58:05.472Z,995.68
2023-04-20T05:58:35.479Z,995.57
2023-04-20T05:59:36.214Z,995.69
2023-04-20T06:00:55.557Z,995.71
2023-04-20T06:01:50.149Z,995.62
2023-04-20T06:02:52.627Z,995.64
2023-04-20T06:03:38.201Z,995.61
2023-04-20T06:04:48.043Z,995.57
2023-04-20T06:05:45.367Z,995.55
2023-04-20T06:06:39.947Z,995.54
2023-04-20T06:07:35.896Z,995.59
2023-04-20T06:10:00.674Z,995.61
2023-04-20T06:10:02.556Z,995.65
2023-04-20T06:11:02.462Z,995.68
2023-04-20T06:12:02.665Z,995.59
2023-04-20T06:13:02.588Z,995.64
2023-04-20T06:14:02.686Z,995.66
2023-04-20T06:15:02.355Z,995.66
2023-04-20T06:16:02.417Z,995.61
2023-04-20T06:17:02.503Z,995.66
2023-04-20T06:18:02.615Z,995.68
2023-04-20T06:32:31.577Z,995.78
2023-04-20T06:37:17.126Z,995.77
2023-04-20T06:40:09.062Z,995.69
2023-04-20T06:41:19.377Z,995.69
2023-04-20T06:42:09.766Z,995.74
2023-04-20T06:43:10.244Z,995.62
2023-04-20T06:44:10.756Z,995.73
2023-04-20T06:45:17.560Z,995.72
2023-04-20T06:46:11.000Z,995.71
2023-04-20T06:47:10.308Z,995.71
2023-04-20T06:48:20.255Z,995.73
2023-04-20T06:49:11.862Z,995.75
2023-04-20T06:50:10.230Z,995.73
2023-04-20T06:51:10.048Z,995.70
2023-04-20T06:52:10.075Z,995.71
2023-04-20T06:53:09.865Z,995.76
2023-04-20T06:54:10.002Z,995.78
2023-04-20T06:55:09.881Z,995.75
2023-04-20T06:57:31.472Z,995.78
2023-04-20T06:57:33.088Z,995.79
2023-04-20T06:58:33.198Z,995.79
2023-04-20T06:59:34.287Z,995.71
2023-04-20T07:00:33.041Z,995.80
2023-04-20T07:01:34.166Z,995.72
2023-04-20T07:02:33.178Z,995.71
2023-04-20T07:03:33.208Z,995.77
2023-04-20T07:04:33.176Z,995.75
2023-04-20T07:05:33.001Z,995.72
2023-04-20T07:06:33.177Z,995.76
2023-04-20T07:07:33.058Z,995.79
2023-04-20T07:08:33.115Z,995.81
2023-04-20T07:09:33.000Z,995.79
2023-04-20T07:10:33.022Z,995.76
2023-04-20T07:11:33.312Z,995.79
2023-04-20T07:12:32.900Z,995.79
2023-04-20T07:13:33.950Z,995.77
2023-04-20T07:14:34.012Z,995.80
2023-04-20T07:15:33.365Z,995.82
2023-04-20T07:16:33.089Z,995.76
2023-04-20T07:17:37.925Z,995.85
2023-04-20T07:18:35.107Z,995.82
2023-04-20T07:19:34.349Z,995.87
2023-04-20T07:20:33.497Z,995.77
2023-04-20T07:21:32.833Z,995.82
2023-04-20T07:22:32.874Z,995.81
2023-04-20T07:23:32.911Z,995.80
2023-04-20T07:24:34.951Z,995.85
2023-04-20T07:25:32.877Z,995.84
2023-04-20T07:26:32.849Z,995.74
2023-04-20T07:27:33.626Z,995.91
2023-04-20T07:28:32.810Z,995.78
2023-04-20T07:29:34.088Z,995.79
2023-04-20T07:30:33.727Z,995.77
2023-04-20T07:31:35.280Z,995.77
2023-04-20T07:32:33.680Z,995.70
2023-04-20T07:33:32.753Z,995.73
2023-04-20T07:34:33.051Z,995.76
2023-04-20T07:35:32.758Z,995.78
2023-04-20T07:36:32.797Z,995.83
2023-04-20T07:37:32.695Z,995.83
2023-04-20T07:38:32.917Z,995.86
2023-04-20T07:39:32.719Z,995.89
2023-04-20T07:40:39.199Z,995.91
2023-04-20T07:41:32.731Z,995.88
2023-04-20T07:42:35.265Z,995.89
2023-04-20T07:43:32.693Z,995.88
2023-04-20T07:44:32.701Z,995.94
2023-04-20T07:45:32.590Z,995.89
2023-04-20T07:46:32.693Z,995.93
2023-04-20T07:47:32.740Z,995.90
2023-04-20T07:48:32.568Z,995.89
2023-04-20T07:49:32.716Z,995.89
2023-04-20T07:50:33.534Z,995.91
2023-04-20T07:51:32.705Z,995.92
2023-04-20T07:52:32.553Z,995.89
2023-04-20T07:53:32.520Z,995.91
2023-04-20T07:54:32.564Z,995.88
2023-04-20T07:55:33.482Z,995.92
2023-04-20T07:56:32.802Z,995.87
2023-04-20T07:57:32.606Z,995.84
2023-04-20T07:58:32.523Z,995.89
2023-04-20T07:59:32.544Z,995.95
2023-04-20T08:00:32.430Z,995.97
2023-04-20T08:01:32.464Z,995.91
2023-04-20T08:02:32.696Z,995.98
2023-04-20T08:03:35.909Z,995.90
2023-04-20T08:04:32.992Z,995.94
2023-04-20T08:05:33.069Z,995.88
2023-04-20T08:06:32.570Z,995.88
2023-04-20T08:07:35.231Z,995.86
2023-04-20T08:08:32.397Z,995.87
2023-04-20T08:09:32.541Z,995.87
2023-04-20T08:10:32.441Z,995.86
2023-04-20T08:11:32.393Z,995.86
2023-04-20T08:12:32.457Z,995.80
2023-04-20T08:13:32.395Z,995.89
2023-04-20T08:14:32.333Z,995.85
2023-04-20T08:15:32.361Z,995.83
2023-04-20T08:16:32.370Z,995.87
2023-04-20T08:17:33.970Z,995.88
2023-04-20T08:18:32.360Z,995.87
2023-04-20T08:19:32.325Z,995.90
2023-04-20T08:21:32.952Z,995.96
2023-04-20T08:22:35.693Z,995.91
2023-04-20T08:23:32.158Z,995.96
2023-04-20T08:25:54.286Z,995.93
2023-04-20T08:25:56.209Z,995.94
2023-04-20T08:26:55.935Z,995.96
2023-04-20T08:27:55.955Z,995.94
2023-04-20T08:28:56.197Z,995.92
2023-04-20T08:29:55.969Z,995.90
2023-04-20T08:30:56.169Z,995.88
2023-04-20T08:31:56.121Z,995.88
2023-04-20T08:32:56.173Z,995.87
2023-04-20T08:33:56.835Z,995.96
2023-04-20T08:34:55.908Z,995.95
2023-04-20T08:35:55.875Z,995.91
2023-04-20T08:36:55.834Z,995.92
2023-04-20T08:37:55.832Z,995.98
2023-04-20T08:38:57.487Z,995.91
2023-04-20T08:39:57.020Z,995.87
2023-04-20T08:40:56.074Z,995.91
2023-04-20T08:41:56.238Z,995.93
2023-04-20T08:42:55.996Z,995.94
2023-04-20T08:43:55.795Z,995.96
2023-04-20T08:48:20.150Z,996.00
2023-04-20T08:50:45.665Z,996.08
2023-04-20T08:51:45.096Z,995.98
2023-04-20T08:52:45.505Z,996.02
2023-04-20T08:53:52.918Z,996.06
2023-04-20T08:55:45.855Z,996.08
2023-04-20T08:56:46.543Z,996.08
2023-04-20T08:57:47.541Z,995.98
2023-04-20T08:58:46.214Z,996.05
2023-04-20T09:01:12.764Z,996.04
2023-04-20T09:01:17.802Z,995.98
2023-04-20T09:02:17.800Z,995.97
2023-04-20T09:03:16.163Z,995.99
2023-04-20T09:04:16.247Z,995.93
2023-04-20T09:05:15.768Z,995.97
2023-04-20T09:06:15.769Z,995.93
2023-04-20T09:07:15.758Z,995.93
2023-04-20T09:08:16.710Z,995.95
2023-04-20T09:09:15.796Z,996.02
2023-04-20T09:10:15.804Z,995.96
2023-04-20T09:11:18.916Z,996.00
2023-04-20T09:12:18.578Z,996.03
2023-04-20T09:13:16.958Z,996.02
2023-04-20T09:14:17.650Z,996.01
2023-04-20T09:15:20.007Z,996.03
2023-04-20T09:16:18.270Z,996.04
2023-04-20T09:17:15.596Z,996.04
2023-04-20T09:18:15.658Z,996.04
2023-04-20T09:19:16.812Z,996.07
2023-04-20T09:20:18.290Z,996.05
2023-04-20T09:21:15.774Z,996.13
2023-04-20T09:22:16.133Z,996.10
2023-04-20T09:23:15.603Z,996.13
2023-04-20T09:24:17.036Z,996.10
2023-04-20T09:25:15.537Z,996.08
2023-04-20T09:26:15.525Z,996.09
2023-04-20T09:27:15.437Z,996.10
2023-04-20T09:28:15.665Z,996.11
2023-04-20T09:29:16.090Z,996.15
2023-04-20T09:30:15.937Z,996.11
2023-04-20T09:31:15.524Z,996.12
2023-04-20T09:32:15.659Z,996.18
2023-04-20T09:33:15.616Z,996.17
2023-04-20T09:34:15.693Z,996.13
2023-04-20T09:35:16.145Z,996.12
2023-04-20T09:36:15.435Z,996.06
2023-04-20T09:37:15.681Z,996.15
2023-04-20T09:38:15.434Z,996.13
2023-04-20T09:39:15.661Z,996.10
2023-04-20T09:40:15.459Z,996.08
2023-04-20T09:41:16.737Z,996.09
2023-04-20T09:43:02.386Z,996.12
2023-04-20T09:44:10.139Z,995.93
2023-04-20T09:45:12.150Z,996.09
2023-04-20T09:48:44.014Z,996.10
2023-04-20T09:49:43.891Z,995.95
2023-04-20T09:52:36.285Z,996.05
2023-04-20T10:00:43.238Z,996.02
2023-04-20T10:01:44.152Z,996.09
2023-04-20T10:02:43.616Z,996.15
2023-04-20T10:03:44.348Z,996.08
2023-04-20T10:04:44.603Z,996.04
2023-04-20T10:05:44.180Z,996.06
2023-04-20T10:06:44.321Z,996.07
2023-04-20T10:07:46.520Z,996.09
2023-04-20T10:08:44.152Z,996.05
2023-04-20T10:09:44.229Z,996.07
2023-04-20T10:10:44.263Z,996.10
2023-04-20T10:11:52.615Z,996.03
2023-04-20T10:12:48.129Z,996.01
2023-04-20T10:13:45.314Z,995.97
2023-04-20T10:16:05.845Z,996.01
2023-04-20T10:16:07.430Z,996.07
2023-04-20T10:17:07.642Z,996.11
2023-04-20T10:18:07.468Z,996.00
2023-04-20T10:19:09.041Z,996.04
2023-04-20T10:20:07.919Z,995.98
2023-04-20T10:21:08.422Z,996.03
2023-04-20T10:22:07.348Z,996.02
2023-04-20T10:23:07.547Z,996.01
2023-04-20T10:24:07.627Z,996.00
2023-04-20T10:25:07.625Z,995.97
2023-04-20T10:26:07.365Z,995.99
2023-04-20T10:27:07.575Z,995.94
2023-04-20T10:28:07.493Z,995.89
2023-04-20T10:29:07.321Z,995.88
2023-04-20T10:30:07.325Z,995.84
2023-04-20T10:31:08.275Z,995.76
2023-04-20T10:32:07.280Z,995.78
2023-04-20T10:33:07.501Z,995.72
2023-04-20T10:34:07.498Z,995.77
2023-04-20T10:35:07.284Z,995.76
2023-04-20T10:36:11.570Z,995.76
2023-04-20T10:37:07.184Z,995.68
2023-04-20T10:38:07.227Z,995.64
2023-04-20T10:39:07.226Z,995.61
2023-04-20T10:40:08.017Z,995.67
2023-04-20T10:41:08.196Z,995.66
2023-04-20T10:42:07.171Z,995.65
2023-04-20T10:43:07.225Z,995.56
2023-04-20T10:44:07.593Z,995.63
2023-04-20T10:45:08.172Z,995.62
2023-04-20T10:46:08.413Z,995.58
2023-04-20T10:47:07.120Z,995.58
2023-04-20T10:48:07.185Z,995.56
2023-04-20T10:50:31.048Z,995.57
2023-04-20T10:50:33.385Z,995.62
2023-04-20T10:51:35.821Z,995.65
2023-04-20T10:52:32.623Z,995.55
2023-04-20T10:53:32.776Z,995.56
2023-04-20T10:54:33.098Z,995.53
2023-04-20T10:55:32.619Z,995.57
2023-04-20T10:56:32.678Z,995.58
2023-04-20T10:57:32.969Z,995.59
2023-04-20T10:58:32.545Z,995.56
2023-04-20T10:59:33.533Z,995.55
2023-04-20T11:00:32.489Z,995.57
2023-04-20T11:01:32.592Z,995.59
2023-04-20T11:02:32.932Z,995.44
2023-04-20T11:03:33.343Z,995.55
2023-04-20T11:04:32.867Z,995.50
2023-04-20T11:05:32.677Z,995.51
2023-04-20T11:06:32.461Z,995.45
2023-04-20T11:07:34.664Z,995.54
2023-04-20T11:08:32.438Z,995.43
2023-04-20T11:09:32.587Z,995.42
2023-04-20T11:10:32.434Z,995.43
2023-04-20T11:11:32.528Z,995.40
2023-04-20T11:12:32.450Z,995.38
2023-04-20T11:13:32.390Z,995.40
2023-04-20T11:14:33.022Z,995.45
2023-04-20T11:15:32.439Z,995.45
2023-04-20T11:16:47.047Z,995.41
2023-04-20T11:17:37.031Z,995.31
2023-04-20T11:19:31.346Z,995.29
2023-04-20T11:19:34.617Z,995.36
2023-04-20T11:20:33.522Z,995.37
2023-04-20T11:21:33.442Z,995.20
2023-04-20T11:22:35.089Z,995.16
2023-04-20T11:23:33.469Z,995.28
2023-04-20T11:24:33.480Z,995.24
2023-04-20T11:25:33.510Z,995.20
2023-04-20T11:26:33.438Z,995.22
2023-04-20T11:27:33.386Z,995.18
2023-04-20T11:28:33.434Z,995.19
2023-04-20T11:29:34.315Z,995.15
2023-04-20T11:30:33.382Z,995.15
2023-04-20T11:31:33.476Z,995.08
2023-04-20T11:32:33.558Z,995.16
2023-04-20T11:33:33.836Z,995.14
2023-04-20T11:34:33.374Z,995.14
2023-04-20T11:35:33.753Z,995.14
2023-04-20T11:36:33.699Z,995.13
2023-04-20T11:37:33.267Z,995.16
2023-04-20T11:38:33.299Z,995.09
2023-04-20T11:39:33.568Z,995.08
2023-04-20T11:40:33.541Z,995.02
2023-04-20T11:41:33.306Z,995.05
2023-04-20T11:42:35.466Z,995.10
2023-04-20T11:43:33.495Z,995.08
2023-04-20T11:44:33.300Z,995.11
2023-04-20T11:45:35.086Z,995.09
2023-04-20T11:46:34.342Z,995.01
2023-04-20T11:47:33.365Z,995.09
2023-04-20T11:48:33.390Z,995.05
2023-04-20T11:49:33.599Z,995.03
2023-04-20T11:50:33.857Z,995.01
2023-04-20T11:51:34.049Z,994.94
2023-04-20T11:52:34.155Z,995.00
2023-04-20T11:53:33.216Z,994.97
2023-04-20T11:54:33.198Z,995.02
2023-04-20T11:55:33.310Z,994.95
2023-04-20T11:56:33.119Z,994.97
2023-04-20T11:57:33.146Z,994.98
2023-04-20T11:58:33.143Z,994.94
2023-04-20T11:59:33.231Z,994.96
2023-04-20T12:00:33.207Z,994.94
2023-04-20T12:01:33.186Z,994.91
2023-04-20T12:02:33.168Z,994.94
2023-04-20T12:03:34.049Z,994.89
2023-04-20T12:04:35.771Z,994.86
2023-04-20T12:05:33.204Z,994.97
2023-04-20T12:06:33.002Z,994.91
2023-04-20T12:07:33.051Z,994.87
2023-04-20T12:08:33.667Z,994.85
2023-04-20T12:09:33.009Z,994.93
2023-04-20T12:10:33.071Z,994.92
2023-04-20T12:11:32.930Z,994.85
2023-04-20T12:12:36.108Z,994.95
2023-04-20T12:13:34.282Z,994.94
2023-04-20T12:14:33.026Z,994.91
2023-04-20T12:15:33.641Z,994.90
2023-04-20T12:16:36.039Z,994.94
2023-04-20T12:17:34.113Z,994.88
2023-04-20T12:18:35.869Z,994.87
2023-04-20T12:19:33.303Z,994.83
2023-04-20T12:20:36.356Z,994.83
2023-04-20T12:21:32.915Z,994.94
2023-04-20T12:22:32.861Z,994.93
2023-04-20T12:23:32.843Z,994.95
2023-04-20T12:24:33.236Z,994.95
2023-04-20T12:25:32.823Z,994.94
2023-04-20T12:26:38.416Z,994.89
2023-04-20T12:27:34.844Z,994.96
2023-04-20T12:28:32.833Z,994.94
2023-04-20T12:29:32.811Z,994.88
2023-04-20T12:30:32.779Z,994.80
2023-04-20T12:31:33.673Z,994.78
2023-04-20T12:32:32.841Z,994.76
2023-04-20T12:33:32.724Z,994.77
2023-04-20T12:34:32.795Z,994.70
2023-04-20T12:35:32.762Z,994.66
2023-04-20T12:36:33.073Z,994.60
2023-04-20T12:37:32.722Z,994.56
2023-04-20T12:38:33.524Z,994.62
2023-04-20T12:39:32.703Z,994.60
2023-04-20T12:40:32.686Z,994.63
2023-04-20T12:41:32.665Z,994.67
2023-04-20T12:42:32.671Z,994.68
2023-04-20T12:43:33.242Z,994.58
2023-04-20T12:44:32.688Z,994.59
2023-04-20T12:45:32.646Z,994.61
2023-04-20T12:46:32.640Z,994.59
2023-04-20T12:47:32.648Z,994.65
2023-04-20T12:48:32.561Z,994.59
2023-04-20T12:49:33.743Z,994.57
2023-04-20T12:50:33.590Z,994.62
2023-04-20T12:51:33.266Z,994.56
2023-04-20T12:52:32.718Z,994.46
2023-04-20T12:53:33.012Z,994.55
2023-04-20T12:54:32.566Z,994.50
2023-04-20T12:55:32.571Z,994.49
2023-04-20T12:56:32.509Z,994.51
2023-04-20T12:57:32.652Z,994.48
2023-04-20T12:58:32.469Z,994.51
2023-04-20T12:59:33.127Z,994.42
2023-04-20T13:00:32.668Z,994.46
2023-04-20T13:01:32.662Z,994.42
2023-04-20T13:02:32.772Z,994.38
2023-04-20T13:03:32.762Z,994.31
2023-04-20T13:04:32.558Z,994.33
2023-04-20T13:05:32.474Z,994.28
2023-04-20T13:06:33.106Z,994.35
2023-04-20T13:07:32.365Z,994.35
2023-04-20T13:08:32.521Z,994.33
2023-04-20T13:09:32.398Z,994.33
2023-04-20T13:10:32.521Z,994.30
2023-04-20T13:11:36.616Z,994.30
2023-04-20T13:12:32.324Z,994.36
2023-04-20T13:13:32.518Z,994.39
2023-04-20T13:14:32.480Z,994.32
2023-04-20T13:16:35.356Z,994.31
2023-04-20T13:17:32.432Z,994.32
2023-04-20T13:18:37.547Z,994.37
2023-04-20T13:19:36.953Z,994.33
2023-04-20T13:20:35.041Z,994.25
2023-04-20T13:21:34.047Z,994.26
2023-04-20T13:22:37.241Z,994.27
2023-04-20T13:23:33.646Z,994.31
2023-04-20T13:24:35.278Z,994.26